Time;durP1;ratioP1;P1;durP2;ratioP2;P2;SDS_P1;SDS_P2;PMS_P1;PMS_P2;Temp;Humidity;BMP_temperature;BMP_pressure;BME280_temperature;BME280_humidity;BME280_pressure;Samples;Min_cycle;Max_cycle;Signal;HPM_P1;HPM_P2
2023/04/08 00:01:32;;;;;;;0.20;0.20;;;;;;;;;;7393102;19;20133;-90
2023/04/08 00:03:58;;;;;;;0.20;0.20;;;;;;;;;;7386843;19;20177;-91
2023/04/08 00:06:26;;;;;;;0.30;0.30;;;;;;;;;;7396484;19;20141;-90
2023/04/08 00:08:52;;;;;;;0.37;0.37;;;;;;;;;;7395859;19;20161;-90
2023/04/08 00:11:19;;;;;;;0.20;0.20;;;;;;;;;;7398046;19;20137;-91
2023/04/08 00:13:46;;;;;;;0.20;0.20;;;;;;;;;;7394728;19;20968;-90
2023/04/08 00:16:13;;;;;;;0.33;0.33;;;;;;;;;;7396588;19;20137;-88
2023/04/08 00:18:58;;;;;;;10.83;1.33;;;;;;;;;;7405895;19;20141;-95
2023/04/08 00:21:25;;;;;;;0.20;0.20;;;;;;;;;;7391511;19;20499;-90
2023/04/08 00:23:52;;;;;;;0.20;0.20;;;;;;;;;;7393169;19;20153;-90
2023/04/08 00:26:19;;;;;;;0.40;0.40;;;;;;;;;;7391505;19;20899;-89
2023/04/08 00:28:45;;;;;;;0.50;0.50;;;;;;;;;;7393504;19;20137;-90
2023/04/08 00:31:12;;;;;;;0.20;0.20;;;;;;;;;;7397084;19;20137;-89
2023/04/08 00:33:39;;;;;;;0.20;0.20;;;;;;;;;;7398340;19;20168;-89
2023/04/08 00:36:05;;;;;;;0.30;0.30;;;;;;;;;;7396470;19;20165;-90
2023/04/08 00:38:32;;;;;;;0.30;0.30;;;;;;;;;;7393937;19;20133;-89
2023/04/08 00:40:59;;;;;;;0.20;0.20;;;;;;;;;;7394974;19;20151;-89
2023/04/08 00:43:25;;;;;;;0.20;0.20;;;;;;;;;;7392285;19;20185;-89
2023/04/08 00:45:53;;;;;;;0.20;0.20;;;;;;;;;;7392941;19;20137;-90
2023/04/08 00:48:19;;;;;;;0.20;0.20;;;;;;;;;;7395427;19;20166;-87
2023/04/08 00:50:46;;;;;;;0.20;0.20;;;;;;;;;;7395515;19;20509;-91
2023/04/08 00:53:17;;;;;;;0.20;0.20;;;;;;;;;;7393970;19;20610;-89
2023/04/08 00:55:44;;;;;;;0.33;0.33;;;;;;;;;;7396530;19;20139;-90
2023/04/08 00:58:12;;;;;;;0.30;0.30;;;;;;;;;;7394960;19;20140;-86
2023/04/08 01:00:43;;;;;;;0.20;0.20;;;;;;;;;;7390003;19;20137;-89
2023/04/08 01:03:20;;;;;;;0.30;0.30;;;;;;;;;;7393234;19;20136;-90
2023/04/08 01:06:08;;;;;;;0.30;0.30;;;;;;;;;;7391443;19;20148;-89
2023/04/08 01:08:37;;;;;;;0.30;0.30;;;;;;;;;;7399069;19;20183;-87
2023/04/08 01:11:09;;;;;;;0.20;0.20;;;;;;;;;;7398516;19;20735;-89
2023/04/08 01:13:39;;;;;;;0.20;0.20;;;;;;;;;;7398493;19;20170;-88
2023/04/08 01:16:11;;;;;;;0.30;0.30;;;;;;;;;;7396826;19;20161;-89
2023/04/08 01:18:40;;;;;;;0.20;0.20;;;;;;;;;;7395101;19;20152;-87
2023/04/08 01:21:07;;;;;;;0.60;0.60;;;;;;;;;;7392436;19;20162;-89
2023/04/08 01:23:49;;;;;;;0.20;0.20;;;;;;;;;;7392215;19;20145;-89
2023/04/08 01:26:21;;;;;;;0.20;0.20;;;;;;;;;;7411015;19;20149;-90
2023/04/08 01:28:50;;;;;;;0.30;0.30;;;;;;;;;;7404666;19;20515;-90
2023/04/08 01:31:17;;;;;;;0.20;0.20;;;;;;;;;;7399523;19;20258;-90
2023/04/08 01:33:45;;;;;;;0.20;0.20;;;;;;;;;;7395017;19;20204;-90
2023/04/08 01:36:13;;;;;;;0.20;0.20;;;;;;;;;;7396832;19;20149;-89
2023/04/08 01:38:40;;;;;;;0.30;0.30;;;;;;;;;;7392943;19;20136;-89
2023/04/08 01:41:08;;;;;;;0.30;0.30;;;;;;;;;;7396519;19;20141;-90
2023/04/08 01:43:35;;;;;;;0.60;0.60;;;;;;;;;;7388671;19;20189;-89
2023/04/08 01:46:02;;;;;;;0.20;0.20;;;;;;;;;;7392625;19;20144;-88
2023/04/08 01:48:29;;;;;;;0.30;0.30;;;;;;;;;;7390757;19;20137;-90
2023/04/08 01:50:56;;;;;;;0.20;0.20;;;;;;;;;;7393993;19;20145;-89
2023/04/08 01:53:22;;;;;;;0.30;0.30;;;;;;;;;;7388841;19;20189;-89
2023/04/08 01:55:54;;;;;;;0.20;0.20;;;;;;;;;;7392909;19;20161;-88
2023/04/08 01:58:21;;;;;;;0.40;0.40;;;;;;;;;;7392795;19;20142;-89
2023/04/08 02:00:50;;;;;;;0.30;0.30;;;;;;;;;;7392423;19;20145;-90
2023/04/08 02:03:18;;;;;;;0.20;0.20;;;;;;;;;;7391551;19;20518;-89
2023/04/08 02:05:46;;;;;;;0.30;0.30;;;;;;;;;;7386347;19;20591;-88
2023/04/08 02:08:12;;;;;;;0.20;0.20;;;;;;;;;;7391550;19;20165;-90
2023/04/08 02:10:39;;;;;;;0.20;0.20;;;;;;;;;;7389011;19;20137;-89
2023/04/08 02:13:06;;;;;;;1.03;0.93;;;;;;;;;;7392710;19;20165;-89
2023/04/08 02:15:35;;;;;;;1.17;1.07;;;;;;;;;;7391274;19;20137;-90
2023/04/08 02:18:10;;;;;;;0.20;0.20;;;;;;;;;;7390228;19;20145;-88
2023/04/08 02:20:38;;;;;;;0.40;0.40;;;;;;;;;;7393117;19;20626;-89
2023/04/08 02:23:13;;;;;;;0.30;0.30;;;;;;;;;;7390942;19;20141;-89
2023/04/08 02:25:42;;;;;;;0.23;0.23;;;;;;;;;;7394444;19;20169;-89
2023/04/08 02:28:10;;;;;;;0.27;0.27;;;;;;;;;;7394053;19;20152;-90
2023/04/08 02:30:40;;;;;;;0.20;0.20;;;;;;;;;;7386974;19;20129;-90
2023/04/08 02:33:08;;;;;;;0.50;0.50;;;;;;;;;;7393149;19;20129;-88
2023/04/08 02:35:35;;;;;;;1.80;0.50;;;;;;;;;;7395087;19;20128;-89
2023/04/08 02:38:02;;;;;;;0.27;0.27;;;;;;;;;;7393159;19;20148;-88
2023/04/08 02:40:30;;;;;;;0.30;0.30;;;;;;;;;;7394347;19;20137;-88
2023/04/08 02:42:58;;;;;;;0.20;0.20;;;;;;;;;;7394000;19;20593;-89
2023/04/08 02:45:27;;;;;;;0.33;0.33;;;;;;;;;;7391103;19;20145;-90
2023/04/08 02:47:54;;;;;;;0.30;0.30;;;;;;;;;;7393615;19;20301;-90
2023/04/08 02:50:21;;;;;;;0.20;0.20;;;;;;;;;;7388680;19;20135;-88
2023/04/08 02:52:47;;;;;;;0.40;0.40;;;;;;;;;;7393164;19;20165;-89
2023/04/08 02:55:14;;;;;;;0.30;0.30;;;;;;;;;;7392713;19;20174;-89
2023/04/08 02:57:41;;;;;;;0.83;0.50;;;;;;;;;;7392818;19;20125;-89
2023/04/08 03:00:08;;;;;;;0.20;0.20;;;;;;;;;;7393725;19;20149;-90
2023/04/08 03:02:35;;;;;;;0.30;0.30;;;;;;;;;;7391626;19;20169;-89
2023/04/08 03:05:04;;;;;;;0.30;0.30;;;;;;;;;;7391367;19;20236;-89
2023/04/08 03:07:31;;;;;;;0.27;0.27;;;;;;;;;;7392677;19;20182;-87
2023/04/08 03:09:58;;;;;;;0.30;0.30;;;;;;;;;;7389026;19;21024;-89
2023/04/08 03:12:26;;;;;;;0.20;0.20;;;;;;;;;;7393806;19;20141;-89
2023/04/08 03:14:53;;;;;;;0.27;0.27;;;;;;;;;;7390236;19;20153;-89
2023/04/08 03:17:20;;;;;;;0.30;0.30;;;;;;;;;;7389646;19;20476;-88
2023/04/08 03:19:47;;;;;;;0.20;0.20;;;;;;;;;;7393457;19;20137;-89
2023/04/08 03:22:13;;;;;;;0.20;0.20;;;;;;;;;;7390267;19;20186;-89
2023/04/08 03:24:40;;;;;;;0.40;0.40;;;;;;;;;;7390773;19;20679;-89
2023/04/08 03:27:07;;;;;;;2.70;1.17;;;;;;;;;;7390086;19;20129;-88
2023/04/08 03:29:34;;;;;;;0.40;0.40;;;;;;;;;;7387981;19;20140;-89
2023/04/08 03:32:01;;;;;;;0.23;0.23;;;;;;;;;;7394146;19;20727;-88
2023/04/08 03:34:27;;;;;;;0.37;0.37;;;;;;;;;;7392279;19;20160;-88
2023/04/08 03:36:54;;;;;;;0.20;0.20;;;;;;;;;;7388567;19;20148;-88
2023/04/08 03:39:21;;;;;;;0.23;0.23;;;;;;;;;;7392047;19;20137;-89
2023/04/08 03:41:47;;;;;;;0.50;0.50;;;;;;;;;;7398562;19;20500;-86
2023/04/08 03:44:14;;;;;;;0.30;0.30;;;;;;;;;;7392497;19;20176;-86
2023/04/08 03:46:41;;;;;;;0.40;0.40;;;;;;;;;;7397774;19;20144;-89
2023/04/08 03:49:08;;;;;;;0.20;0.20;;;;;;;;;;7404770;19;20153;-88
2023/04/08 03:51:34;;;;;;;0.30;0.30;;;;;;;;;;7428497;19;20121;-88
2023/04/08 03:54:01;;;;;;;0.30;0.30;;;;;;;;;;7427290;19;20150;-88
2023/04/08 03:56:28;;;;;;;0.20;0.20;;;;;;;;;;7430787;19;20129;-90
2023/04/08 03:58:54;;;;;;;0.30;0.30;;;;;;;;;;7429660;19;20156;-91
2023/04/08 04:01:21;;;;;;;0.30;0.30;;;;;;;;;;7429741;19;20174;-89
2023/04/08 04:03:47;;;;;;;0.30;0.30;;;;;;;;;;7425991;19;20173;-91
2023/04/08 04:06:14;;;;;;;0.30;0.30;;;;;;;;;;7429140;19;20144;-91
2023/04/08 04:08:41;;;;;;;0.30;0.30;;;;;;;;;;7401118;19;20145;-88
2023/04/08 04:11:07;;;;;;;1.70;1.13;;;;;;;;;;7401245;19;20496;-90
2023/04/08 04:13:34;;;;;;;0.30;0.30;;;;;;;;;;7402703;19;20157;-89
2023/04/08 04:16:00;;;;;;;0.30;0.30;;;;;;;;;;7399631;19;20129;-90
2023/04/08 04:18:27;;;;;;;0.50;0.50;;;;;;;;;;7396366;19;20152;-90
2023/04/08 04:20:54;;;;;;;0.57;0.57;;;;;;;;;;7397087;19;20132;-90
2023/04/08 04:23:23;;;;;;;0.20;0.20;;;;;;;;;;7395878;19;20168;-91
2023/04/08 04:25:49;;;;;;;0.30;0.30;;;;;;;;;;7392420;19;20128;-91
2023/04/08 04:28:16;;;;;;;0.73;0.63;;;;;;;;;;7394218;19;20165;-91
2023/04/08 04:30:43;;;;;;;0.40;0.40;;;;;;;;;;7396280;19;20520;-85
2023/04/08 04:33:09;;;;;;;0.40;0.40;;;;;;;;;;7397541;19;20133;-90
2023/04/08 04:35:36;;;;;;;0.50;0.50;;;;;;;;;;7397468;19;20596;-89
2023/04/08 04:38:04;;;;;;;0.20;0.20;;;;;;;;;;7396646;19;20217;-91
2023/04/08 04:40:31;;;;;;;0.20;0.20;;;;;;;;;;7393012;19;20144;-90
2023/04/08 04:42:57;;;;;;;0.33;0.33;;;;;;;;;;7393727;19;20140;-88
2023/04/08 04:45:24;;;;;;;0.80;0.80;;;;;;;;;;7395351;19;20613;-89
2023/04/08 04:47:50;;;;;;;0.83;0.83;;;;;;;;;;7397505;19;20165;-89
2023/04/08 04:50:17;;;;;;;0.40;0.40;;;;;;;;;;7400974;19;20140;-89
2023/04/08 04:52:44;;;;;;;0.40;0.40;;;;;;;;;;7404133;19;20137;-90
2023/04/08 04:55:10;;;;;;;0.37;0.27;;;;;;;;;;7399069;19;20164;-89
2023/04/08 04:57:37;;;;;;;0.30;0.30;;;;;;;;;;7418235;19;20153;-90
2023/04/08 05:00:04;;;;;;;0.30;0.30;;;;;;;;;;7419237;19;20161;-91
2023/04/08 05:02:31;;;;;;;0.50;0.50;;;;;;;;;;7398990;19;20169;-89
2023/04/08 05:04:58;;;;;;;0.37;0.37;;;;;;;;;;7391405;19;20165;-90
2023/04/08 05:07:24;;;;;;;0.33;0.33;;;;;;;;;;7394695;19;20149;-90
2023/04/08 05:09:51;;;;;;;0.53;0.53;;;;;;;;;;7392120;19;20136;-91
2023/04/08 05:12:19;;;;;;;0.30;0.30;;;;;;;;;;7394287;19;20512;-89
2023/04/08 05:14:46;;;;;;;0.30;0.30;;;;;;;;;;7395301;19;20417;-90
2023/04/08 05:17:12;;;;;;;0.30;0.30;;;;;;;;;;7394634;19;20153;-89
2023/04/08 05:19:39;;;;;;;0.50;0.50;;;;;;;;;;7393011;19;20165;-90
2023/04/08 05:22:06;;;;;;;0.40;0.40;;;;;;;;;;7391979;19;20164;-89
2023/04/08 05:24:32;;;;;;;0.50;0.50;;;;;;;;;;7393999;19;20186;-91
2023/04/08 05:27:00;;;;;;;0.20;0.20;;;;;;;;;;7395704;19;20165;-89
2023/04/08 05:29:26;;;;;;;0.77;0.77;;;;;;;;;;7395160;19;20137;-90
2023/04/08 05:31:53;;;;;;;0.40;0.40;;;;;;;;;;7396692;19;20183;-90
2023/04/08 05:34:21;;;;;;;0.40;0.40;;;;;;;;;;7395241;19;20163;-89
2023/04/08 05:36:52;;;;;;;0.80;0.50;;;;;;;;;;7394140;19;20136;-88
2023/04/08 05:39:19;;;;;;;0.20;0.20;;;;;;;;;;7396173;19;20133;-89
2023/04/08 05:41:46;;;;;;;0.77;0.77;;;;;;;;;;7393012;19;20141;-88
2023/04/08 05:44:13;;;;;;;0.67;0.60;;;;;;;;;;7393452;19;20172;-89
2023/04/08 05:46:39;;;;;;;0.40;0.40;;;;;;;;;;7395958;19;20169;-89
2023/04/08 05:49:06;;;;;;;0.30;0.30;;;;;;;;;;7395863;19;20487;-88
2023/04/08 05:51:33;;;;;;;0.93;0.50;;;;;;;;;;7394342;19;20137;-88
2023/04/08 05:53:59;;;;;;;0.30;0.30;;;;;;;;;;7392248;19;20168;-90
2023/04/08 05:56:26;;;;;;;0.60;0.60;;;;;;;;;;7397850;19;20197;-89
2023/04/08 05:58:52;;;;;;;0.30;0.30;;;;;;;;;;7394195;19;20145;-89
2023/04/08 06:01:19;;;;;;;0.40;0.40;;;;;;;;;;7394004;19;20158;-90
2023/04/08 06:03:46;;;;;;;0.50;0.50;;;;;;;;;;7391875;19;20172;-90
2023/04/08 06:06:13;;;;;;;0.50;0.50;;;;;;;;;;7394705;19;20145;-89
2023/04/08 06:08:39;;;;;;;1.03;0.83;;;;;;;;;;7395649;19;20169;-89
2023/04/08 06:11:06;;;;;;;0.30;0.30;;;;;;;;;;7390076;19;20136;-89
2023/04/08 06:13:33;;;;;;;0.73;0.67;;;;;;;;;;7394498;19;20689;-90
2023/04/08 06:16:12;;;;;;;0.40;0.40;;;;;;;;;;7390579;19;20137;-89
2023/04/08 06:18:39;;;;;;;0.57;0.57;;;;;;;;;;7389781;19;20135;-90
2023/04/08 06:21:05;;;;;;;0.33;0.33;;;;;;;;;;7390417;19;20149;-89
2023/04/08 06:23:32;;;;;;;0.40;0.40;;;;;;;;;;7393067;19;20176;-89
2023/04/08 06:25:58;;;;;;;0.20;0.20;;;;;;;;;;7393750;19;20169;-89
2023/04/08 06:28:25;;;;;;;0.30;0.30;;;;;;;;;;7393316;19;20145;-90
2023/04/08 06:30:52;;;;;;;0.70;0.70;;;;;;;;;;7393037;19;20140;-88
2023/04/08 06:33:19;;;;;;;0.30;0.30;;;;;;;;;;7394582;19;20136;-89
2023/04/08 06:35:45;;;;;;;0.77;0.77;;;;;;;;;;7389639;19;20183;-89
2023/04/08 06:38:12;;;;;;;0.30;0.30;;;;;;;;;;7393035;19;20162;-89
2023/04/08 06:40:39;;;;;;;0.30;0.30;;;;;;;;;;7394267;19;20148;-90
2023/04/08 06:43:08;;;;;;;0.57;0.57;;;;;;;;;;7391152;19;20161;-90
2023/04/08 06:45:35;;;;;;;0.97;0.97;;;;;;;;;;7394740;19;20154;-89
2023/04/08 06:48:02;;;;;;;0.50;0.50;;;;;;;;;;7393095;19;20141;-89
2023/04/08 06:50:28;;;;;;;0.33;0.33;;;;;;;;;;7392069;19;20144;-89
2023/04/08 06:52:55;;;;;;;0.30;0.30;;;;;;;;;;7393033;19;20161;-89
2023/04/08 06:55:22;;;;;;;0.33;0.33;;;;;;;;;;7392531;19;20610;-89
2023/04/08 06:57:48;;;;;;;0.30;0.30;;;;;;;;;;7392578;19;20158;-92
2023/04/08 07:00:15;;;;;;;0.40;0.40;;;;;;;;;;7390900;19;20495;-89
2023/04/08 07:02:42;;;;;;;0.50;0.50;;;;;;;;;;7391315;19;20608;-89
2023/04/08 07:05:09;;;;;;;0.30;0.30;;;;;;;;;;7387940;19;20161;-91
2023/04/08 07:07:36;;;;;;;0.50;0.50;;;;;;;;;;7393305;19;20158;-89
2023/04/08 07:10:03;;;;;;;0.40;0.40;;;;;;;;;;7391893;19;20638;-92
2023/04/08 07:12:29;;;;;;;0.30;0.30;;;;;;;;;;7389301;19;20528;-89
2023/04/08 07:14:56;;;;;;;0.80;0.80;;;;;;;;;;7388996;19;20195;-89
2023/04/08 07:17:23;;;;;;;0.40;0.40;;;;;;;;;;7399462;19;20530;-90
2023/04/08 07:19:49;;;;;;;0.30;0.30;;;;;;;;;;7400042;19;20145;-90
2023/04/08 07:22:16;;;;;;;0.30;0.30;;;;;;;;;;7401254;19;20161;-89
2023/04/08 07:24:48;;;;;;;0.30;0.30;;;;;;;;;;7396928;19;20197;-87
2023/04/08 07:27:16;;;;;;;0.30;0.30;;;;;;;;;;7398333;19;20146;-89
2023/04/08 07:29:42;;;;;;;0.37;0.37;;;;;;;;;;7399628;19;20133;-90
2023/04/08 07:32:09;;;;;;;0.77;0.77;;;;;;;;;;7397365;19;20168;-90
2023/04/08 07:34:36;;;;;;;0.40;0.40;;;;;;;;;;7394645;19;20173;-91
2023/04/08 07:37:03;;;;;;;0.60;0.60;;;;;;;;;;7398384;19;20138;-87
2023/04/08 07:39:30;;;;;;;0.50;0.50;;;;;;;;;;7397251;19;20141;-91
2023/04/08 07:41:57;;;;;;;0.83;0.73;;;;;;;;;;7395424;19;20148;-90
2023/04/08 07:44:24;;;;;;;0.40;0.40;;;;;;;;;;7398179;19;20173;-90
2023/04/08 07:46:50;;;;;;;0.37;0.37;;;;;;;;;;7395798;19;20197;-92
2023/04/08 07:49:20;;;;;;;0.70;0.70;;;;;;;;;;7397179;19;20141;-90
2023/04/08 07:51:47;;;;;;;0.63;0.63;;;;;;;;;;7396581;19;20137;-91
2023/04/08 07:54:16;;;;;;;0.43;0.43;;;;;;;;;;7395238;19;20239;-91
2023/04/08 07:56:43;;;;;;;0.50;0.50;;;;;;;;;;7399807;19;20593;-88
2023/04/08 07:59:10;;;;;;;0.67;0.67;;;;;;;;;;7397108;19;20152;-89
2023/04/08 08:01:37;;;;;;;1.00;0.93;;;;;;;;;;7396095;19;20169;-91
2023/04/08 08:04:07;;;;;;;0.50;0.50;;;;;;;;;;7398649;19;20182;-89
2023/04/08 08:06:34;;;;;;;0.60;0.60;;;;;;;;;;7395977;19;20148;-89
2023/04/08 08:09:00;;;;;;;0.57;0.57;;;;;;;;;;7400225;19;20144;-89
2023/04/08 08:11:27;;;;;;;0.47;0.47;;;;;;;;;;7420825;19;20137;-91
2023/04/08 08:13:54;;;;;;;0.30;0.30;;;;;;;;;;7430718;19;20141;-91
2023/04/08 08:16:21;;;;;;;1.03;1.00;;;;;;;;;;7431232;19;20141;-91
2023/04/08 08:18:47;;;;;;;0.70;0.70;;;;;;;;;;7430055;19;20148;-91
2023/04/08 08:21:14;;;;;;;1.37;0.60;;;;;;;;;;7429455;19;20542;-92
2023/04/08 08:23:41;;;;;;;0.40;0.40;;;;;;;;;;7412638;19;20170;-91
2023/04/08 08:26:09;;;;;;;0.50;0.50;;;;;;;;;;7403091;19;20606;-92
2023/04/08 08:28:36;;;;;;;1.43;1.33;;;;;;;;;;7417773;19;20140;-90
2023/04/08 08:31:04;;;;;;;1.80;0.90;;;;;;;;;;7403218;19;20132;-88
2023/04/08 08:33:32;;;;;;;0.87;0.87;;;;;;;;;;7393776;19;20176;-90
2023/04/08 08:35:58;;;;;;;0.80;0.80;;;;;;;;;;7397269;19;20165;-95
2023/04/08 08:38:36;;;;;;;0.40;0.40;;;;;;;;;;7405922;19;20137;-95
2023/04/08 08:44:51;;;;;;;0.40;0.40;;;;;;;;;;7416563;19;20184;-94
2023/04/08 08:47:50;;;;;;;0.90;0.90;;;;;;;;;;7424008;19;20569;-94
2023/04/08 08:51:09;;;;;;;0.37;0.37;;;;;;;;;;7404873;19;20645;-93
2023/04/08 08:54:05;;;;;;;0.50;0.50;;;;;;;;;;7395544;19;20571;-93
2023/04/08 08:56:36;;;;;;;0.30;0.30;;;;;;;;;;7401247;19;20148;-93
2023/04/08 08:59:06;;;;;;;0.77;0.70;;;;;;;;;;7398187;19;20148;-93
2023/04/08 09:01:49;;;;;;;0.40;0.40;;;;;;;;;;7401380;19;20148;-93
2023/04/08 09:04:29;;;;;;;0.83;0.83;;;;;;;;;;7401752;19;20594;-94
2023/04/08 09:07:10;;;;;;;0.70;0.70;;;;;;;;;;7380253;19;20144;-89
2023/04/08 09:09:47;;;;;;;0.77;0.77;;;;;;;;;;7385124;19;20157;-88
2023/04/08 09:12:14;;;;;;;0.70;0.70;;;;;;;;;;7387039;19;20148;-88
2023/04/08 09:41:37;;;;;;;0.50;0.50;;;;;;;;;;7391878;19;20172;-89
2023/04/08 09:44:06;;;;;;;0.60;0.60;;;;;;;;;;7376010;19;20526;-89
2023/04/08 09:46:40;;;;;;;0.97;0.70;;;;;;;;;;7382926;19;20177;-89
2023/04/08 09:49:13;;;;;;;0.37;0.37;;;;;;;;;;7382680;19;20524;-90
2023/04/08 09:51:47;;;;;;;0.37;0.37;;;;;;;;;;7385404;19;20149;-88
2023/04/08 09:54:18;;;;;;;0.50;0.50;;;;;;;;;;7391756;19;20183;-87
2023/04/08 09:57:03;;;;;;;0.70;0.70;;;;;;;;;;7397688;19;20136;-94
2023/04/08 09:59:32;;;;;;;0.53;0.53;;;;;;;;;;7399485;19;20136;-86
2023/04/08 10:02:06;;;;;;;0.77;0.77;;;;;;;;;;7394570;19;20156;-86
2023/04/08 10:04:37;;;;;;;0.30;0.30;;;;;;;;;;7396070;19;20145;-86
2023/04/08 10:07:06;;;;;;;0.60;0.60;;;;;;;;;;7398528;19;20176;-86
2023/04/08 10:09:33;;;;;;;0.50;0.50;;;;;;;;;;7393716;19;20591;-86
2023/04/08 10:12:00;;;;;;;0.83;0.83;;;;;;;;;;7398028;19;20140;-84
2023/04/08 10:14:27;;;;;;;0.47;0.47;;;;;;;;;;7397904;19;20161;-85
2023/04/08 10:17:34;;;;;;;0.43;0.43;;;;;;;;;;7387508;19;20534;-85
2023/04/08 10:20:01;;;;;;;0.93;0.90;;;;;;;;;;7397929;19;20149;-86
2023/04/08 10:22:28;;;;;;;0.93;0.80;;;;;;;;;;7382741;19;23641;-87
2023/04/08 10:25:16;;;;;;;0.30;0.30;;;;;;;;;;7389334;19;20172;-86
2023/04/08 10:27:44;;;;;;;0.43;0.43;;;;;;;;;;7392420;19;20136;-86
2023/04/08 10:30:32;;;;;;;0.33;0.33;;;;;;;;;;7396719;19;20165;-86
2023/04/08 10:32:59;;;;;;;0.40;0.40;;;;;;;;;;7392442;19;20562;-85
2023/04/08 10:35:33;;;;;;;2.30;0.97;;;;;;;;;;7390243;19;20149;-85
2023/04/08 10:38:00;;;;;;;0.60;0.60;;;;;;;;;;7396411;19;20149;-85
2023/04/08 10:40:26;;;;;;;1.13;0.70;;;;;;;;;;7397241;19;20518;-85
2023/04/08 10:42:57;;;;;;;0.70;0.70;;;;;;;;;;7393128;19;20136;-86
2023/04/08 10:45:24;;;;;;;1.03;0.77;;;;;;;;;;7393920;19;20196;-85
2023/04/08 10:47:51;;;;;;;0.50;0.50;;;;;;;;;;7397189;19;20467;-85
2023/04/08 10:50:22;;;;;;;0.70;0.70;;;;;;;;;;7399846;19;20149;-85
2023/04/08 10:52:53;;;;;;;1.07;1.00;;;;;;;;;;7401337;19;20157;-85
2023/04/08 10:55:23;;;;;;;0.97;0.93;;;;;;;;;;7400586;19;20184;-86
2023/04/08 10:57:50;;;;;;;0.57;0.57;;;;;;;;;;7399021;19;20749;-85
2023/04/08 11:00:18;;;;;;;0.30;0.30;;;;;;;;;;7404112;19;20140;-86
2023/04/08 11:02:45;;;;;;;0.80;0.80;;;;;;;;;;7390829;19;20141;-86
2023/04/08 11:05:12;;;;;;;0.80;0.80;;;;;;;;;;7396901;19;20181;-85
2023/04/08 11:07:40;;;;;;;0.50;0.50;;;;;;;;;;7402905;19;20152;-85
2023/04/08 11:10:10;;;;;;;0.37;0.37;;;;;;;;;;7402114;19;20180;-85
2023/04/08 11:12:38;;;;;;;0.60;0.60;;;;;;;;;;7399200;19;20166;-86
2023/04/08 11:15:05;;;;;;;0.50;0.50;;;;;;;;;;7396804;19;20157;-86
2023/04/08 11:17:33;;;;;;;0.60;0.60;;;;;;;;;;7389324;19;20156;-85
2023/04/08 11:20:04;;;;;;;0.63;0.63;;;;;;;;;;7397382;19;20161;-85
2023/04/08 11:22:35;;;;;;;0.33;0.33;;;;;;;;;;7395346;19;20620;-86
2023/04/08 11:25:02;;;;;;;0.40;0.40;;;;;;;;;;7397446;19;20173;-85
2023/04/08 11:27:28;;;;;;;2.70;0.43;;;;;;;;;;7402068;19;20141;-84
2023/04/08 11:29:55;;;;;;;0.40;0.40;;;;;;;;;;7404066;19;20151;-84
2023/04/08 11:32:22;;;;;;;0.30;0.30;;;;;;;;;;7402265;19;20157;-86
2023/04/08 11:34:49;;;;;;;0.40;0.40;;;;;;;;;;7398531;19;20160;-86
2023/04/08 11:37:16;;;;;;;1.20;0.60;;;;;;;;;;7402077;19;20173;-85
2023/04/08 11:39:43;;;;;;;0.60;0.60;;;;;;;;;;7402573;19;20167;-87
2023/04/08 11:42:29;;;;;;;0.30;0.30;;;;;;;;;;7381373;19;20137;-88
2023/04/08 11:44:56;;;;;;;0.30;0.30;;;;;;;;;;7378541;19;20176;-87
2023/04/08 11:47:33;;;;;;;0.40;0.40;;;;;;;;;;7397427;19;20153;-86
2023/04/08 11:50:00;;;;;;;0.40;0.40;;;;;;;;;;7401282;19;20618;-86
2023/04/08 11:52:44;;;;;;;0.40;0.40;;;;;;;;;;7395095;19;20145;-87
2023/04/08 11:55:11;;;;;;;0.33;0.33;;;;;;;;;;7393022;19;20173;-86
2023/04/08 11:57:38;;;;;;;0.60;0.60;;;;;;;;;;7407258;19;20688;-87
2023/04/08 12:00:06;;;;;;;0.57;0.57;;;;;;;;;;7424743;19;20169;-86
2023/04/08 12:02:33;;;;;;;0.20;0.20;;;;;;;;;;7418332;19;20133;-86
2023/04/08 12:05:00;;;;;;;0.30;0.30;;;;;;;;;;7413713;19;20177;-85
2023/04/08 12:07:27;;;;;;;0.73;0.73;;;;;;;;;;7404232;19;20165;-85
2023/04/08 12:09:53;;;;;;;0.70;0.70;;;;;;;;;;7400544;19;20141;-85
2023/04/08 12:12:20;;;;;;;0.30;0.30;;;;;;;;;;7399200;19;20153;-85
2023/04/08 12:14:47;;;;;;;0.50;0.43;;;;;;;;;;7394004;19;20156;-86
2023/04/08 12:17:13;;;;;;;0.20;0.20;;;;;;;;;;7391556;19;20163;-85
2023/04/08 12:19:40;;;;;;;0.87;0.60;;;;;;;;;;7393723;19;20140;-85
2023/04/08 12:22:06;;;;;;;0.40;0.40;;;;;;;;;;7400139;19;20137;-86
2023/04/08 12:24:33;;;;;;;0.30;0.30;;;;;;;;;;7396963;19;20152;-86
2023/04/08 12:27:01;;;;;;;0.70;0.60;;;;;;;;;;7399821;19;20141;-86
2023/04/08 12:29:28;;;;;;;0.57;0.57;;;;;;;;;;7400453;19;20141;-86
2023/04/08 12:31:54;;;;;;;0.50;0.50;;;;;;;;;;7401455;19;20180;-84
2023/04/08 12:34:21;;;;;;;0.50;0.43;;;;;;;;;;7396137;19;20231;-85
2023/04/08 12:36:48;;;;;;;0.50;0.50;;;;;;;;;;7398110;19;20149;-85
2023/04/08 12:39:15;;;;;;;0.60;0.60;;;;;;;;;;7401361;19;20141;-86
2023/04/08 12:41:42;;;;;;;0.40;0.40;;;;;;;;;;7400865;19;20137;-85
2023/04/08 12:44:08;;;;;;;0.37;0.37;;;;;;;;;;7399459;19;20173;-87
2023/04/08 12:46:35;;;;;;;0.40;0.40;;;;;;;;;;7401224;19;20185;-86
2023/04/08 12:49:02;;;;;;;0.60;0.60;;;;;;;;;;7399796;19;20144;-86
2023/04/08 12:51:31;;;;;;;0.80;0.80;;;;;;;;;;7400281;19;20194;-86
2023/04/08 12:53:59;;;;;;;0.57;0.57;;;;;;;;;;7393636;19;20779;-86
2023/04/08 12:56:26;;;;;;;0.47;0.47;;;;;;;;;;7394715;19;20156;-86
2023/04/08 12:58:54;;;;;;;0.53;0.53;;;;;;;;;;7402628;19;20161;-88
2023/04/08 13:01:20;;;;;;;0.40;0.40;;;;;;;;;;7397794;19;20137;-86
2023/04/08 13:03:47;;;;;;;0.30;0.30;;;;;;;;;;7399892;19;20141;-87
2023/04/08 13:06:14;;;;;;;0.30;0.30;;;;;;;;;;7397848;19;20144;-87
2023/04/08 13:08:41;;;;;;;0.60;0.60;;;;;;;;;;7399915;19;20160;-87
2023/04/08 13:11:08;;;;;;;0.70;0.70;;;;;;;;;;7398989;19;20177;-88
2023/04/08 13:13:35;;;;;;;0.67;0.50;;;;;;;;;;7406907;19;20224;-87
2023/04/08 13:16:02;;;;;;;0.70;0.70;;;;;;;;;;7413967;19;20161;-88
2023/04/08 13:18:29;;;;;;;0.57;0.57;;;;;;;;;;7416910;19;20153;-88
2023/04/08 13:20:57;;;;;;;0.60;0.60;;;;;;;;;;7420590;19;20141;-88
2023/04/08 13:23:24;;;;;;;0.90;0.90;;;;;;;;;;7413942;19;20156;-87
2023/04/08 13:25:50;;;;;;;0.30;0.30;;;;;;;;;;7402315;19;20145;-88
2023/04/08 13:28:17;;;;;;;0.40;0.40;;;;;;;;;;7398110;19;20498;-88
2023/04/08 13:30:44;;;;;;;0.60;0.60;;;;;;;;;;7399696;19;20605;-87
2023/04/08 13:33:10;;;;;;;0.47;0.47;;;;;;;;;;7396766;19;20168;-88
2023/04/08 13:35:37;;;;;;;0.53;0.50;;;;;;;;;;7396618;19;20140;-89
2023/04/08 13:38:04;;;;;;;0.20;0.20;;;;;;;;;;7396365;19;20148;-88
2023/04/08 13:40:30;;;;;;;0.40;0.40;;;;;;;;;;7396081;19;20141;-87
2023/04/08 13:42:57;;;;;;;0.50;0.50;;;;;;;;;;7398634;19;20133;-88
2023/04/08 13:45:24;;;;;;;0.33;0.33;;;;;;;;;;7396269;19;20164;-88
2023/04/08 13:47:51;;;;;;;0.57;0.57;;;;;;;;;;7396036;19;20145;-89
2023/04/08 13:50:18;;;;;;;3.03;0.60;;;;;;;;;;7396439;19;20144;-89
2023/04/08 13:52:44;;;;;;;0.53;0.53;;;;;;;;;;7394414;19;20133;-88
2023/04/08 13:55:11;;;;;;;0.50;0.50;;;;;;;;;;7402739;19;20164;-87
2023/04/08 13:57:38;;;;;;;0.40;0.37;;;;;;;;;;7412075;19;20151;-88
2023/04/08 14:00:05;;;;;;;0.50;0.50;;;;;;;;;;7420055;19;20176;-88
2023/04/08 14:02:32;;;;;;;0.30;0.30;;;;;;;;;;7414684;19;20150;-88
2023/04/08 16:16:51;;;;;;;0.50;0.50;;;;;;;;;;7400454;19;20222;-88
2023/04/08 16:19:20;;;;;;;0.30;0.30;;;;;;;;;;7393822;19;20145;-88
2023/04/08 16:21:47;;;;;;;0.50;0.50;;;;;;;;;;7399735;19;20198;-86
2023/04/08 16:24:14;;;;;;;0.70;0.70;;;;;;;;;;7403754;19;20141;-84
2023/04/08 16:26:41;;;;;;;0.30;0.30;;;;;;;;;;7400674;19;20137;-85
2023/04/08 16:29:07;;;;;;;0.43;0.43;;;;;;;;;;7394805;19;20998;-86
2023/04/08 16:31:34;;;;;;;0.40;0.40;;;;;;;;;;7398694;19;20157;-86
2023/04/08 16:34:01;;;;;;;0.70;0.70;;;;;;;;;;7390227;19;20149;-85
2023/04/08 16:36:27;;;;;;;0.90;0.90;;;;;;;;;;7397439;19;20599;-85
2023/04/08 16:38:54;;;;;;;1.33;0.70;;;;;;;;;;7398055;19;20141;-84
2023/04/08 16:41:20;;;;;;;0.43;0.43;;;;;;;;;;7399507;19;20172;-85
2023/04/08 16:43:47;;;;;;;0.67;0.67;;;;;;;;;;7402918;19;20608;-85
2023/04/08 16:46:15;;;;;;;0.53;0.53;;;;;;;;;;7403198;19;20145;-85
2023/04/08 16:48:43;;;;;;;0.40;0.40;;;;;;;;;;7396126;19;20638;-85
2023/04/08 16:51:10;;;;;;;0.50;0.50;;;;;;;;;;7400088;19;20152;-86
2023/04/08 16:53:37;;;;;;;0.57;0.57;;;;;;;;;;7400144;19;20568;-85
2023/04/08 16:56:04;;;;;;;0.43;0.43;;;;;;;;;;7393957;19;20144;-85
2023/04/08 16:58:30;;;;;;;0.30;0.30;;;;;;;;;;7397227;19;20129;-84
2023/04/08 17:00:57;;;;;;;0.30;0.30;;;;;;;;;;7397884;19;20156;-85
2023/04/08 17:03:25;;;;;;;0.43;0.43;;;;;;;;;;7399231;19;20165;-86
2023/04/08 17:05:52;;;;;;;0.57;0.43;;;;;;;;;;7396759;19;20522;-84
2023/04/08 17:08:20;;;;;;;0.40;0.40;;;;;;;;;;7397168;19;20157;-86
2023/04/08 17:10:48;;;;;;;0.30;0.30;;;;;;;;;;7395095;19;20177;-84
2023/04/08 17:13:15;;;;;;;0.30;0.30;;;;;;;;;;7396656;19;20144;-84
2023/04/08 17:15:42;;;;;;;0.73;0.73;;;;;;;;;;7395668;19;21028;-85
2023/04/08 17:18:08;;;;;;;0.40;0.40;;;;;;;;;;7396689;19;20153;-88
2023/04/08 17:20:36;;;;;;;0.50;0.50;;;;;;;;;;7398581;19;20177;-87
2023/04/08 17:23:02;;;;;;;0.40;0.40;;;;;;;;;;7397562;19;20165;-90
2023/04/08 17:25:29;;;;;;;0.80;0.80;;;;;;;;;;7396130;19;20134;-87
2023/04/08 17:27:56;;;;;;;0.30;0.30;;;;;;;;;;7394633;19;20144;-86
2023/04/08 17:30:22;;;;;;;0.60;0.60;;;;;;;;;;7397935;19;20185;-88
2023/04/08 17:32:49;;;;;;;0.30;0.30;;;;;;;;;;7394928;19;20153;-87